createdAt,value
2018-04-23T00:02:26.114Z,3.57
2018-04-23T00:04:56.759Z,3.20
2018-04-23T00:07:25.887Z,3.40
2018-04-23T00:09:55.762Z,3.10
2018-04-23T00:12:25.522Z,3.43
2018-04-23T00:14:54.474Z,3.50
2018-04-23T00:17:23.471Z,3.97
2018-04-23T00:19:53.418Z,4.13
2018-04-23T00:22:22.685Z,3.90
2018-04-23T00:24:51.820Z,3.10
2018-04-23T00:27:20.670Z,4.20
2018-04-23T00:32:25.079Z,3.77
2018-04-23T00:34:54.010Z,3.77
2018-04-23T00:37:22.971Z,3.03
2018-04-23T00:39:52.748Z,4.07
2018-04-23T00:42:21.812Z,3.70
2018-04-23T00:44:50.807Z,3.60
2018-04-23T00:47:20.826Z,4.50
2018-04-23T00:49:49.901Z,3.40
2018-04-23T00:52:18.809Z,3.00
2018-04-23T00:54:48.365Z,3.30
2018-04-23T00:57:17.408Z,4.13
2018-04-23T00:59:46.382Z,3.00
2018-04-23T01:02:15.303Z,3.53
2018-04-23T01:04:44.292Z,3.20
2018-04-23T01:07:13.492Z,3.27
2018-04-23T01:09:44.243Z,3.80
2018-04-23T01:12:16.837Z,3.23
2018-04-23T01:14:45.886Z,3.00
2018-04-23T01:17:14.931Z,2.93
2018-04-23T01:19:44.500Z,3.53
2018-04-23T01:22:13.701Z,3.33
2018-04-23T01:24:43.204Z,3.00
2018-04-23T01:27:12.200Z,3.30
2018-04-23T01:29:41.201Z,3.37
2018-04-23T01:32:10.087Z,3.63
2018-04-23T01:34:39.904Z,2.70
2018-04-23T01:37:09.015Z,3.13
2018-04-23T01:39:37.932Z,3.00
2018-04-23T01:42:06.981Z,2.90
2018-04-23T01:44:38.739Z,3.17
2018-04-23T01:47:07.835Z,3.80
2018-04-23T01:49:36.839Z,4.30
2018-04-23T01:52:06.752Z,3.30
2018-04-23T01:54:35.736Z,3.20
2018-04-23T01:57:05.144Z,3.87
2018-04-23T01:59:34.269Z,4.00
2018-04-23T02:02:03.239Z,3.10
2018-04-23T02:04:32.739Z,3.40
2018-04-23T02:07:02.785Z,3.43
2018-04-23T02:09:31.697Z,3.90
2018-04-23T02:12:01.168Z,3.40
2018-04-23T02:14:34.359Z,3.10
2018-04-23T02:17:03.447Z,3.50
2018-04-23T02:19:32.442Z,3.37
2018-04-23T02:22:05.122Z,4.20
2018-04-23T02:24:34.217Z,4.20
2018-04-23T02:27:04.439Z,3.50
2018-04-23T02:29:36.200Z,4.20
2018-04-23T02:32:05.913Z,4.40
2018-04-23T02:34:34.757Z,3.97
2018-04-23T02:37:04.725Z,4.30
2018-04-23T02:39:34.404Z,4.27
2018-04-23T02:42:03.420Z,4.17
2018-04-23T02:44:33.241Z,3.90
2018-04-23T02:47:02.158Z,4.50
2018-04-23T02:49:31.120Z,4.43
2018-04-23T02:52:04.423Z,4.17
2018-04-23T02:54:33.499Z,3.43
2018-04-23T02:57:02.508Z,4.60
2018-04-23T02:59:31.497Z,6.10
2018-04-23T03:02:01.400Z,6.03
2018-04-23T03:04:31.228Z,5.53
2018-04-23T03:07:01.038Z,5.23
2018-04-23T03:09:30.852Z,3.73
2018-04-23T03:12:00.191Z,3.90
2018-04-23T03:14:30.881Z,3.20
2018-04-23T03:16:59.781Z,4.10
2018-04-23T03:19:28.670Z,3.73
2018-04-23T03:21:59.371Z,5.00
2018-04-23T03:24:29.259Z,5.60
2018-04-23T03:26:58.755Z,5.63
2018-04-23T03:29:28.340Z,6.93
2018-04-23T03:31:57.429Z,5.20
2018-04-23T03:34:26.325Z,5.73
2018-04-23T03:36:55.240Z,6.53
2018-04-23T03:39:24.358Z,6.37
2018-04-23T03:41:53.311Z,7.03
2018-04-23T03:46:56.623Z,8.83
2018-04-23T03:49:26.473Z,8.50
2018-04-23T03:51:55.513Z,11.63
2018-04-23T03:54:25.454Z,11.20
2018-04-23T03:56:54.352Z,11.87
2018-04-23T03:59:24.265Z,12.40
2018-04-23T04:01:53.449Z,13.50
2018-04-23T04:04:22.448Z,12.43
2018-04-23T04:06:53.289Z,12.07
2018-04-23T04:09:23.039Z,11.77
2018-04-23T04:11:52.188Z,12.10
2018-04-23T04:14:32.965Z,13.27
2018-04-23T04:17:02.163Z,14.10
2018-04-23T04:19:31.118Z,14.80
2018-04-23T04:22:01.173Z,14.53
2018-04-23T04:24:31.190Z,12.47
2018-04-23T04:27:00.184Z,13.33
2018-04-23T04:29:31.439Z,13.87
2018-04-23T04:32:00.669Z,11.90
2018-04-23T04:34:29.622Z,12.07
2018-04-23T04:36:59.542Z,12.53
2018-04-23T04:39:28.496Z,13.43
2018-04-23T04:41:57.421Z,13.83
2018-04-23T04:47:00.749Z,13.40
2018-04-23T04:49:29.770Z,14.40
2018-04-23T04:51:58.730Z,15.43
2018-04-23T04:54:27.971Z,14.17
2018-04-23T04:56:56.892Z,15.30
2018-04-23T04:59:30.234Z,14.37
2018-04-23T05:02:00.274Z,15.27
2018-04-23T05:04:29.226Z,17.17
2018-04-23T05:06:58.217Z,15.20
2018-04-23T05:09:27.212Z,14.73
2018-04-23T05:12:06.012Z,12.10
2018-04-23T05:14:34.932Z,12.33
2018-04-23T05:17:11.917Z,11.53
2018-04-23T05:19:42.851Z,10.97
2018-04-23T05:22:13.115Z,11.90
2018-04-23T05:24:42.020Z,10.47
2018-04-23T05:27:11.036Z,11.73
2018-04-23T05:29:40.057Z,10.97
2018-04-23T05:32:09.157Z,11.90
2018-04-23T05:34:39.119Z,9.53
2018-04-23T05:37:09.782Z,11.03
2018-04-23T05:39:38.905Z,8.80
2018-04-23T05:42:07.897Z,8.63
2018-04-23T05:44:37.048Z,8.10
2018-04-23T05:47:05.990Z,7.87
2018-04-23T05:49:36.157Z,8.37
2018-04-23T05:52:05.308Z,6.40
2018-04-23T05:54:34.558Z,5.80
2018-04-23T05:57:04.545Z,6.90
2018-04-23T05:59:34.534Z,7.60
2018-04-23T06:02:03.501Z,6.80
2018-04-23T06:04:33.347Z,5.50
2018-04-23T06:07:02.441Z,5.53
2018-04-23T06:09:31.437Z,7.33
2018-04-23T06:12:00.482Z,7.13
2018-04-23T06:14:30.242Z,6.70
2018-04-23T06:16:59.341Z,6.47
2018-04-23T06:19:28.485Z,7.20
2018-04-23T06:21:57.636Z,6.77
2018-04-23T06:24:28.371Z,6.43
2018-04-23T06:26:57.267Z,5.90
2018-04-23T06:29:26.365Z,5.90
2018-04-23T06:31:55.861Z,6.10
2018-04-23T06:34:24.874Z,5.37
2018-04-23T06:36:53.960Z,5.37
2018-04-23T06:39:23.054Z,5.40
2018-04-23T06:41:52.255Z,6.40
2018-04-23T06:44:23.140Z,6.33
2018-04-23T06:46:52.074Z,6.20
2018-04-23T06:49:21.178Z,6.60
2018-04-23T06:51:50.257Z,6.10
2018-04-23T06:54:20.195Z,6.83
2018-04-23T06:56:49.184Z,6.27
2018-04-23T06:59:19.258Z,6.97
2018-04-23T07:01:49.907Z,6.43
2018-04-23T07:04:18.831Z,6.40
2018-04-23T07:06:49.770Z,5.47
2018-04-23T07:09:18.878Z,6.97
2018-04-23T07:11:48.785Z,6.80
2018-04-23T07:14:17.789Z,6.70
2018-04-23T07:16:48.337Z,8.20
2018-04-23T07:19:17.303Z,7.63
2018-04-23T07:21:47.071Z,7.57
2018-04-23T07:24:15.944Z,7.40
2018-04-23T07:26:44.973Z,7.50
2018-04-23T07:29:15.525Z,7.70
2018-04-23T07:31:45.323Z,7.27
2018-04-23T07:34:14.293Z,6.90
2018-04-23T07:39:18.530Z,7.70
2018-04-23T07:41:47.445Z,6.63
2018-04-23T07:44:17.427Z,8.10
2018-04-23T07:46:46.579Z,9.87
2018-04-23T07:49:15.510Z,9.20
2018-04-23T07:51:44.469Z,8.43
2018-04-23T07:54:13.556Z,8.40
2018-04-23T07:56:42.609Z,8.13
2018-04-23T07:59:11.497Z,6.77
2018-04-23T08:01:40.440Z,6.20
2018-04-23T08:04:09.332Z,6.70
2018-04-23T08:06:39.256Z,8.03
2018-04-23T08:09:08.241Z,8.87
2018-04-23T08:11:37.177Z,9.63
2018-04-23T08:14:07.050Z,9.73
2018-04-23T08:16:36.029Z,10.97
2018-04-23T08:19:05.043Z,10.03
2018-04-23T08:21:34.797Z,7.97
2018-04-23T08:24:03.951Z,7.33
2018-04-23T08:26:33.045Z,7.77
2018-04-23T08:29:02.041Z,7.17
2018-04-23T08:31:31.546Z,7.03
2018-04-23T08:34:00.637Z,6.90
2018-04-23T08:36:30.424Z,7.13
2018-04-23T08:38:59.780Z,7.07
2018-04-23T08:41:28.751Z,6.80
2018-04-23T08:44:00.438Z,7.17
2018-04-23T08:46:29.891Z,7.70
2018-04-23T08:48:59.868Z,7.10
2018-04-23T08:51:29.907Z,7.57
2018-04-23T08:53:59.738Z,6.40
2018-04-23T08:56:28.659Z,7.07
2018-04-23T08:58:58.276Z,6.90
2018-04-23T09:01:27.881Z,6.40
2018-04-23T09:03:56.975Z,6.33
2018-04-23T09:06:26.933Z,7.47
2018-04-23T09:08:55.881Z,6.90
2018-04-23T09:11:24.756Z,8.10
2018-04-23T09:13:55.394Z,7.03
2018-04-23T09:16:24.294Z,6.87
2018-04-23T09:18:53.493Z,7.30
2018-04-23T09:21:27.000Z,7.40
2018-04-23T09:23:55.985Z,7.00
2018-04-23T09:26:25.027Z,6.70
2018-04-23T09:28:53.969Z,6.57
2018-04-23T09:31:23.063Z,7.20
2018-04-23T09:33:52.020Z,6.93
2018-04-23T09:36:21.854Z,7.20
2018-04-23T09:38:50.772Z,5.97
2018-04-23T09:41:19.712Z,6.43
2018-04-23T09:43:48.686Z,6.80
2018-04-23T09:46:17.553Z,6.60
2018-04-23T09:48:46.548Z,6.67
2018-04-23T09:51:15.510Z,5.53
2018-04-23T09:53:44.528Z,5.37
2018-04-23T09:56:14.422Z,6.10
2018-04-23T09:58:44.159Z,6.10
2018-04-23T10:01:18.782Z,6.10
2018-04-23T10:03:51.771Z,5.83
2018-04-23T10:06:21.479Z,6.03
2018-04-23T10:08:50.463Z,5.47
2018-04-23T10:11:20.316Z,5.80
2018-04-23T10:13:49.304Z,5.60
2018-04-23T10:16:18.286Z,6.27
2018-04-23T10:18:47.171Z,6.53
2018-04-23T10:21:16.315Z,6.57
2018-04-23T10:23:46.012Z,5.80
2018-04-23T10:26:15.677Z,5.87
2018-04-23T10:28:44.613Z,5.53
2018-04-23T10:31:14.417Z,5.83
2018-04-23T10:33:46.247Z,5.60
2018-04-23T10:36:15.208Z,5.63
2018-04-23T10:38:44.141Z,4.93
2018-04-23T10:41:14.983Z,5.70
2018-04-23T10:43:44.024Z,6.17
2018-04-23T10:46:13.791Z,5.93
2018-04-23T10:48:44.622Z,5.67
2018-04-23T10:51:13.411Z,5.70
2018-04-23T10:53:42.237Z,5.80
2018-04-23T10:56:11.340Z,6.00
2018-04-23T10:58:40.290Z,5.40
2018-04-23T11:01:09.249Z,5.60
2018-04-23T11:03:38.791Z,6.30
2018-04-23T11:06:07.788Z,5.83
2018-04-23T11:08:36.770Z,5.67
2018-04-23T11:11:12.124Z,6.07
2018-04-23T11:13:41.836Z,6.00
2018-04-23T11:16:11.032Z,5.73
2018-04-23T11:18:40.234Z,5.93
2018-04-23T11:21:09.131Z,5.80
2018-04-23T11:23:38.117Z,6.10
2018-04-23T11:26:07.145Z,6.30
2018-04-23T11:28:36.144Z,6.10
2018-04-23T11:31:05.119Z,5.37
2018-04-23T11:33:36.964Z,5.70
2018-04-23T11:36:06.058Z,6.27
2018-04-23T11:38:35.062Z,5.97
2018-04-23T11:41:04.053Z,6.90
2018-04-23T11:43:33.041Z,7.37
2018-04-23T11:46:01.974Z,7.53
2018-04-23T11:48:31.077Z,7.30
2018-04-23T11:51:00.057Z,6.83
2018-04-23T11:53:29.048Z,5.67
2018-04-23T11:55:59.649Z,5.60
2018-04-23T11:58:28.524Z,6.40
2018-04-23T12:00:58.560Z,5.67
2018-04-23T12:03:28.431Z,5.97
2018-04-23T12:05:57.489Z,6.30
2018-04-23T12:08:26.472Z,7.33
2018-04-23T12:10:58.118Z,7.00
2018-04-23T12:13:27.122Z,7.40
2018-04-23T12:15:56.108Z,7.30
2018-04-23T12:18:25.307Z,6.80
2018-04-23T12:20:54.409Z,6.20
2018-04-23T12:23:23.402Z,6.63
2018-04-23T12:25:54.238Z,6.40
2018-04-23T12:28:23.637Z,6.20
2018-04-23T12:30:53.156Z,6.00
2018-04-23T12:33:24.904Z,7.20
2018-04-23T12:35:53.790Z,7.80
2018-04-23T12:38:22.821Z,7.30
2018-04-23T12:40:51.865Z,6.80
2018-04-23T12:43:20.968Z,7.43
2018-04-23T12:45:50.740Z,7.10
2018-04-23T12:48:19.836Z,7.37
2018-04-23T12:50:48.782Z,7.40
2018-04-23T12:53:17.670Z,7.33
2018-04-23T12:55:48.515Z,7.60
2018-04-23T12:58:17.509Z,7.03
2018-04-23T13:00:46.501Z,6.67
2018-04-23T13:03:15.495Z,6.80
2018-04-23T13:05:44.631Z,6.80
2018-04-23T13:08:13.687Z,6.50
2018-04-23T13:10:42.769Z,6.93
2018-04-23T13:13:11.720Z,6.70
2018-04-23T13:15:40.687Z,7.10
2018-04-23T13:18:10.627Z,7.50
2018-04-23T13:20:39.563Z,7.10
2018-04-23T13:23:08.523Z,6.83
2018-04-23T13:25:37.513Z,6.80
2018-04-23T13:28:06.618Z,7.00
2018-04-23T13:30:35.593Z,7.33
2018-04-23T13:33:05.476Z,6.67
2018-04-23T13:35:34.435Z,6.63
2018-04-23T13:38:03.467Z,6.70
2018-04-23T13:40:34.180Z,7.33
2018-04-23T13:43:03.658Z,6.60
2018-04-23T13:45:32.493Z,6.50
2018-04-23T13:48:03.227Z,7.50
2018-04-23T13:50:32.153Z,6.90
2018-04-23T13:53:01.052Z,6.80
2018-04-23T13:58:05.266Z,7.17
2018-04-23T14:00:34.810Z,6.50
2018-04-23T14:03:05.181Z,6.90
2018-04-23T14:05:34.173Z,6.43
2018-04-23T14:08:03.624Z,6.80
2018-04-23T14:10:33.463Z,6.90
2018-04-23T14:13:02.382Z,6.87
2018-04-23T14:15:31.514Z,7.00
2018-04-23T14:18:03.336Z,6.23
2018-04-23T14:20:32.424Z,5.73
2018-04-23T14:23:01.537Z,6.50
2018-04-23T14:25:32.159Z,6.43
2018-04-23T14:28:01.163Z,6.00
2018-04-23T14:30:31.106Z,6.40
2018-04-23T14:33:00.202Z,6.00
2018-04-23T14:35:29.272Z,5.87
2018-04-23T14:37:58.234Z,6.37
2018-04-23T14:40:28.897Z,7.83
2018-04-23T14:42:58.095Z,6.60
2018-04-23T14:45:27.090Z,6.00
2018-04-23T14:47:57.107Z,5.73
2018-04-23T14:50:26.305Z,7.87
2018-04-23T14:52:56.118Z,7.47
2018-04-23T14:58:00.051Z,6.17
2018-04-23T15:00:29.043Z,6.47
2018-04-23T15:02:59.774Z,6.37
2018-04-23T15:05:28.768Z,6.10
2018-04-23T15:07:57.767Z,6.20
2018-04-23T15:10:27.684Z,5.57
2018-04-23T15:12:56.673Z,6.87
2018-04-23T15:15:27.949Z,5.73
2018-04-23T15:17:57.017Z,6.60
2018-04-23T15:20:26.116Z,6.23
2018-04-23T15:22:55.127Z,5.90
2018-04-23T15:25:27.077Z,5.70
2018-04-23T15:27:56.901Z,5.80
2018-04-23T15:30:26.496Z,5.60
2018-04-23T15:32:58.152Z,6.50
2018-04-23T15:35:27.142Z,6.33
2018-04-23T15:37:56.954Z,7.03
2018-04-23T15:40:29.025Z,7.70
2018-04-23T15:42:58.735Z,7.43
2018-04-23T15:45:27.816Z,7.17
2018-04-23T15:47:59.385Z,6.30
2018-04-23T15:50:28.412Z,6.30
2018-04-23T15:52:57.413Z,6.43
2018-04-23T15:55:26.370Z,6.23
2018-04-23T15:57:55.370Z,6.20
2018-04-23T16:00:24.357Z,6.50
2018-04-23T16:02:53.349Z,6.60
2018-04-23T16:05:22.845Z,6.33
2018-04-23T16:07:51.813Z,6.20
2018-04-23T16:10:20.881Z,5.83
2018-04-23T16:12:49.851Z,7.30
2018-04-23T16:15:19.094Z,6.73
2018-04-23T16:17:49.964Z,6.43
2018-04-23T16:20:19.124Z,7.87
2018-04-23T16:22:48.084Z,7.27
2018-04-23T16:25:17.173Z,7.37
2018-04-23T16:27:46.391Z,8.23
2018-04-23T16:30:15.420Z,7.37
2018-04-23T16:32:45.438Z,6.80
2018-04-23T16:35:14.464Z,6.40
2018-04-23T16:37:43.359Z,7.10
2018-04-23T16:40:13.174Z,6.57
2018-04-23T16:42:42.994Z,7.20
2018-04-23T16:47:48.454Z,7.10
2018-04-23T16:50:17.452Z,7.33
2018-04-23T16:52:46.529Z,8.10
2018-04-23T16:55:16.515Z,8.70
2018-04-23T16:57:47.296Z,8.20
2018-04-23T17:00:16.459Z,7.50
2018-04-23T17:02:45.527Z,6.50
2018-04-23T17:05:15.201Z,6.93
2018-04-23T17:07:44.820Z,6.90
2018-04-23T17:10:15.546Z,7.53
2018-04-23T17:12:45.515Z,7.30
2018-04-23T17:15:14.867Z,7.37
2018-04-23T17:20:18.016Z,8.07
2018-04-23T17:22:48.677Z,8.70
2018-04-23T17:25:18.738Z,10.23
2018-04-23T17:27:47.825Z,8.50
2018-04-23T17:30:18.045Z,8.03
2018-04-23T17:32:48.209Z,7.50
2018-04-23T17:35:17.274Z,7.27
2018-04-23T17:37:46.597Z,6.47
2018-04-23T17:40:16.926Z,6.30
2018-04-23T17:42:45.888Z,6.97
2018-04-23T17:45:14.896Z,6.50
2018-04-23T17:47:44.079Z,7.80
2018-04-23T17:50:13.009Z,7.43
2018-04-23T17:52:42.015Z,7.07
2018-04-23T17:55:12.593Z,7.10
2018-04-23T17:57:41.493Z,5.80
2018-04-23T18:00:10.581Z,6.40
2018-04-23T18:02:42.961Z,6.90
2018-04-23T18:05:11.792Z,6.60
2018-04-23T18:07:40.781Z,6.40
2018-04-23T18:10:09.877Z,6.93
2018-04-23T18:12:38.785Z,6.70
2018-04-23T18:15:07.760Z,6.60
2018-04-23T18:17:37.478Z,7.33
2018-04-23T18:20:06.483Z,6.73
2018-04-23T18:22:35.366Z,7.47
2018-04-23T18:25:04.408Z,8.17
2018-04-23T18:27:33.511Z,8.23
2018-04-23T18:30:02.410Z,7.67
2018-04-23T18:32:31.299Z,8.30
2018-04-23T18:35:00.447Z,7.10
2018-04-23T18:37:29.282Z,7.23
2018-04-23T18:40:00.050Z,6.33
2018-04-23T18:42:28.944Z,7.87
2018-04-23T18:44:59.131Z,7.17
2018-04-23T18:47:30.685Z,8.93
2018-04-23T18:49:59.578Z,6.73
2018-04-23T18:52:28.468Z,7.80
2018-04-23T18:54:57.572Z,7.87
2018-04-23T18:57:26.775Z,7.80
2018-04-23T18:59:55.666Z,7.93
2018-04-23T19:02:28.138Z,7.73
2018-04-23T19:04:57.128Z,8.33
2018-04-23T19:07:25.959Z,8.47
2018-04-23T19:09:55.766Z,7.50
2018-04-23T19:12:25.743Z,9.57
2018-04-23T19:14:54.699Z,9.00
2018-04-23T19:19:57.550Z,7.80
2018-04-23T19:22:26.751Z,7.97
2018-04-23T19:24:55.776Z,7.50
2018-04-23T19:27:25.048Z,8.03
2018-04-23T19:29:53.911Z,9.20
2018-04-23T19:32:23.026Z,9.20
2018-04-23T19:34:52.721Z,9.80
2018-04-23T19:37:22.531Z,8.30
2018-04-23T19:39:52.363Z,7.83
2018-04-23T19:42:21.561Z,8.43
2018-04-23T19:44:50.358Z,8.93
2018-04-23T19:47:19.478Z,7.20
2018-04-23T19:49:48.382Z,7.63
2018-04-23T19:52:18.192Z,7.50
2018-04-23T19:54:47.936Z,8.17
2018-04-23T19:57:16.858Z,7.00
2018-04-23T19:59:45.805Z,7.97
2018-04-23T20:02:14.740Z,6.67
2018-04-23T20:04:43.676Z,7.00
2018-04-23T20:07:12.505Z,6.63
2018-04-23T20:09:41.634Z,6.57
2018-04-23T20:12:10.489Z,6.50
2018-04-23T20:14:39.601Z,6.57
2018-04-23T20:17:09.999Z,7.10
2018-04-23T20:19:39.039Z,7.63
2018-04-23T20:22:07.865Z,6.33
2018-04-23T20:24:39.328Z,5.90
2018-04-23T20:27:08.677Z,6.73
2018-04-23T20:29:37.511Z,6.90
2018-04-23T20:32:06.566Z,7.70
2018-04-23T20:34:35.605Z,6.10
2018-04-23T20:37:04.654Z,6.67
2018-04-23T20:39:35.204Z,6.60
2018-04-23T20:42:04.157Z,6.37
2018-04-23T20:44:33.081Z,6.63
2018-04-23T20:47:02.061Z,6.00
2018-04-23T20:49:31.108Z,6.43
2018-04-23T20:52:00.157Z,6.17
2018-04-23T20:54:32.603Z,6.43
2018-04-23T20:57:01.742Z,5.80
2018-04-23T20:59:30.747Z,6.20
2018-04-23T21:02:02.368Z,6.70
2018-04-23T21:04:31.313Z,7.17
2018-04-23T21:07:00.288Z,5.27
2018-04-23T21:09:30.078Z,6.93
2018-04-23T21:11:59.276Z,6.27
2018-04-23T21:14:28.171Z,6.30
2018-04-23T21:16:58.263Z,6.23
2018-04-23T21:19:27.182Z,6.00
2018-04-23T21:21:56.128Z,6.30
2018-04-23T21:24:25.196Z,6.20
2018-04-23T21:26:54.334Z,6.20
2018-04-23T21:29:23.263Z,6.50
2018-04-23T21:31:53.212Z,7.33
2018-04-23T21:34:22.069Z,6.57
2018-04-23T21:36:51.065Z,6.80
2018-04-23T21:39:19.953Z,6.30
2018-04-23T21:41:48.842Z,7.13
2018-04-23T21:44:17.871Z,6.90
2018-04-23T21:46:46.876Z,6.57
2018-04-23T21:49:15.721Z,6.57
2018-04-23T21:51:44.634Z,7.23
2018-04-23T21:54:15.961Z,7.60
2018-04-23T21:56:44.789Z,8.03
2018-04-23T21:59:13.645Z,7.10
2018-04-23T22:01:42.598Z,7.47
2018-04-23T22:04:11.576Z,7.20
2018-04-23T22:06:40.628Z,6.70
2018-04-23T22:09:10.411Z,8.23
2018-04-23T22:11:39.334Z,6.67
2018-04-23T22:14:08.431Z,6.80
2018-04-23T22:19:12.406Z,7.60
2018-04-23T22:21:41.343Z,8.77
2018-04-23T22:24:11.910Z,7.70
2018-04-23T22:26:40.769Z,7.83
2018-04-23T22:29:10.214Z,8.27
2018-04-23T22:34:13.327Z,7.73
2018-04-23T22:36:42.270Z,8.50
2018-04-23T22:39:13.151Z,7.70
2018-04-23T22:41:42.108Z,8.03
2018-04-23T22:44:11.001Z,8.60
2018-04-23T22:46:40.197Z,8.13
2018-04-23T22:49:09.192Z,8.13
2018-04-23T22:51:37.983Z,7.83
2018-04-23T22:54:06.975Z,7.97
2018-04-23T22:56:37.607Z,7.03
2018-04-23T22:59:06.502Z,8.00
2018-04-23T23:01:35.446Z,7.20
2018-04-23T23:04:04.489Z,7.20
2018-04-23T23:06:33.482Z,7.87
2018-04-23T23:09:02.473Z,8.63
2018-04-23T23:11:31.534Z,9.20
2018-04-23T23:14:00.666Z,7.63
2018-04-23T23:16:29.746Z,7.90
2018-04-23T23:18:58.654Z,8.13
2018-04-23T23:21:27.582Z,8.40
2018-04-23T23:23:56.538Z,9.00
2018-04-23T23:26:26.149Z,8.37
2018-04-23T23:28:55.130Z,7.50
2018-04-23T23:31:25.002Z,7.70
2018-04-23T23:33:53.908Z,8.47
2018-04-23T23:36:22.770Z,8.80
2018-04-23T23:38:52.730Z,8.77
2018-04-23T23:41:21.655Z,8.40
2018-04-23T23:43:50.641Z,8.80
2018-04-23T23:46:20.560Z,8.47
2018-04-23T23:48:52.215Z,8.13
2018-04-23T23:51:21.207Z,9.23
2018-04-23T23:53:51.061Z,9.93
2018-04-23T23:56:20.002Z,10.03
2018-04-23T23:58:49.111Z,9.37
